Amboy, California
Current Conditions -  °F | °C
As of 11:56 PM on Sunday 21 Dec 2014 (Local Time) from KNXP Reporting Station
Clear Clear  
Wind Chill: 13°   Ceiling: Unl
Heat Index: 13°   Visibility: 10mi
Dew Point:   Wind: 14mph
Humidity: 67%   Direction: 310°NW
Pressure: 30.17"   Gusts: NA
Location:  34.56°N, 115.75°W
Report Text: KNXP 220756Z AUTO 31012KT 10SM CLR 13/07 A3017 RMK AO2 SLP195 T01280067 401780044 $
Loading
Personal Weather Stations






























Interactive Weather Map New forecast layout! Learn more

10-Day Weather Forecast

Advertisements
Track Severe Weather on mobile